Time;durP1;ratioP1;P1;durP2;ratioP2;P2;SDS_P1;SDS_P2;PMS_P1;PMS_P2;Temp;Humidity;BMP_temperature;BMP_pressure;BME280_temperature;BME280_humidity;BME280_pressure;Samples;Min_cycle;Max_cycle;Signal;HPM_P1;HPM_P2
2023/03/30 00:01:13;;;;;;;7.32;2.58;;;15.20;53.30;;;17.99;38.91;97277.97;5062904;28;20040;-46
2023/03/30 00:03:46;;;;;;;7.82;3.08;;;15.10;53.30;;;18.03;39.01;97281.03;5060434;28;20044;-46
2023/03/30 00:06:21;;;;;;;5.65;2.30;;;15.20;53.40;;;18.05;38.82;97281.66;5059054;28;20045;-47
2023/03/30 00:08:55;;;;;;;8.70;2.42;;;15.10;53.30;;;18.07;38.91;97282.28;5061756;28;20934;-44
2023/03/30 00:11:25;;;;;;;6.55;2.70;;;15.10;53.40;;;18.05;38.67;97266.31;5062513;28;20040;-45
2023/03/30 00:13:53;;;;;;;10.05;3.33;;;15.20;53.30;;;18.05;38.74;97268.19;5058756;28;20048;-46
2023/03/30 00:16:21;;;;;;;7.70;3.58;;;15.20;53.50;;;18.04;38.77;97267.34;5059048;28;20048;-49
2023/03/30 00:18:49;;;;;;;10.93;5.30;;;15.20;53.50;;;18.05;38.93;97257.44;5061802;28;20052;-46
2023/03/30 00:21:19;;;;;;;9.02;4.25;;;15.20;53.70;;;18.05;39.01;97260.13;5062340;28;20059;-46
2023/03/30 00:23:48;;;;;;;8.02;3.47;;;15.10;53.70;;;18.03;39.04;97257.63;5059141;28;20547;-44
2023/03/30 00:26:16;;;;;;;11.95;4.03;;;15.10;53.80;;;18.03;38.98;97252.25;5057903;28;20049;-43
2023/03/30 00:28:45;;;;;;;10.40;3.15;;;15.10;53.90;;;18.05;38.86;97249.34;5060894;28;20045;-43
2023/03/30 00:31:12;;;;;;;8.75;4.25;;;15.20;53.80;;;18.07;38.98;97242.69;5052852;28;20040;-44
2023/03/30 00:33:42;;;;;;;9.95;3.55;;;15.20;53.80;;;18.08;39.06;97238.13;5058361;28;20041;-43
2023/03/30 00:36:15;;;;;;;9.03;4.07;;;15.20;54.00;;;18.11;39.22;97237.69;5059433;28;20044;-43
2023/03/30 00:38:44;;;;;;;10.70;3.83;;;15.20;54.20;;;18.08;39.29;97241.63;5074155;28;20057;-46
2023/03/30 00:41:11;;;;;;;9.60;3.45;;;15.20;54.50;;;18.07;39.36;97234.59;5057189;28;20049;-44
2023/03/30 00:44:49;;;;;;;7.70;3.17;;;15.10;54.70;;;18.02;39.49;97230.91;5066638;28;20048;-45
2023/03/30 00:47:18;;;;;;;6.47;2.72;;;15.00;55.10;;;17.99;39.46;97229.50;5046771;28;20044;-47
2023/03/30 00:49:45;;;;;;;10.60;3.53;;;14.90;55.20;;;17.89;39.73;97227.28;5047835;28;20543;-45
2023/03/30 00:52:18;;;;;;;11.75;2.92;;;14.90;55.40;;;17.83;39.65;97211.94;5056637;28;20418;-45
2023/03/30 00:54:46;;;;;;;6.70;2.70;;;14.90;55.40;;;17.81;39.70;97214.03;5058314;28;20045;-45
2023/03/30 00:57:14;;;;;;;6.90;2.42;;;14.80;55.40;;;17.77;40.01;97206.63;5044353;28;20048;-45
2023/03/30 00:59:41;;;;;;;7.95;2.15;;;14.90;55.50;;;17.80;39.95;97200.81;5058496;28;20417;-44
2023/03/30 01:02:09;;;;;;;7.03;2.50;;;14.90;55.70;;;17.79;39.96;97208.03;5056793;28;20049;-50
2023/03/30 01:04:37;;;;;;;7.85;2.90;;;14.90;55.60;;;17.81;40.12;97210.53;5059443;28;20521;-45
2023/03/30 01:07:06;;;;;;;13.82;3.00;;;14.90;55.60;;;17.83;40.21;97211.13;5062187;28;20416;-44
2023/03/30 01:09:34;;;;;;;8.57;3.83;;;14.90;55.90;;;17.82;40.28;97209.50;5044742;28;20036;-47
2023/03/30 01:12:02;;;;;;;11.35;3.67;;;14.90;56.10;;;17.77;40.31;97212.00;5060080;28;20033;-48
2023/03/30 01:14:30;;;;;;;11.38;3.22;;;14.80;56.10;;;17.77;40.29;97207.44;5060795;28;20433;-45
2023/03/30 01:17:35;;;;;;;11.48;3.53;;;14.90;56.30;;;17.80;40.45;97217.78;5065668;28;20037;-46
2023/03/30 01:20:27;;;;;;;8.73;2.60;;;14.90;57.20;;;17.77;40.77;97223.59;5054791;28;20033;-46
2023/03/30 01:23:03;;;;;;;8.45;2.65;;;14.90;57.30;;;17.53;41.55;97230.59;5064087;28;20608;-48
2023/03/30 01:25:55;;;;;;;7.68;2.55;;;14.90;57.70;;;17.52;41.99;97216.31;5064684;28;20095;-44
2023/03/30 01:28:49;;;;;;;11.55;2.80;;;14.90;58.30;;;17.61;42.05;97222.25;5060453;28;20052;-45
2023/03/30 01:32:00;;;;;;;8.02;3.38;;;14.90;59.40;;;17.45;42.66;97210.13;5055556;28;20116;-46
2023/03/30 01:35:20;;;;;;;7.95;3.60;;;14.90;59.40;;;17.57;42.36;97204.06;5058112;28;20044;-47
2023/03/30 01:38:25;;;;;;;6.78;3.15;;;14.90;59.20;;;17.59;42.23;97200.09;4984672;28;20077;-45
2023/03/30 01:41:30;;;;;;;10.10;3.03;;;14.90;59.40;;;17.59;42.31;97191.22;5000112;28;20050;-45
2023/03/30 01:44:20;;;;;;;12.90;3.63;;;14.80;59.20;;;17.48;42.57;97204.28;5052896;28;20064;-46
2023/03/30 01:46:56;;;;;;;10.88;3.90;;;14.80;59.50;;;17.39;43.08;97208.31;5044940;28;20056;-45
2023/03/30 01:49:36;;;;;;;7.88;2.80;;;14.80;60.00;;;17.50;42.76;97212.16;5063323;28;20139;-47
2023/03/30 01:52:39;;;;;;;6.95;2.90;;;14.80;59.70;;;17.43;43.02;97212.22;5052525;28;20041;-47
2023/03/30 01:55:36;;;;;;;7.68;2.40;;;14.80;60.00;;;17.47;42.87;97199.97;5054863;28;20052;-48
2023/03/30 01:58:27;;;;;;;5.03;2.50;;;14.80;60.30;;;17.50;43.16;97206.78;5044645;28;20041;-46
2023/03/30 02:00:58;;;;;;;8.20;3.38;;;14.80;61.10;;;17.48;43.41;97203.47;5063615;28;20032;-45
2023/03/30 02:03:37;;;;;;;9.18;2.92;;;14.80;60.30;;;17.56;43.19;97208.59;5062657;28;20497;-45
2023/03/30 02:06:17;;;;;;;12.60;3.47;;;14.90;61.00;;;17.57;43.58;97218.34;5053049;28;20041;-49
2023/03/30 02:08:48;;;;;;;10.20;3.20;;;14.90;61.20;;;17.60;43.55;97214.38;5061553;28;20045;-45
2023/03/30 02:11:16;;;;;;;9.18;2.53;;;14.90;61.20;;;17.62;43.64;97215.00;5046513;28;20048;-46
2023/03/30 02:13:46;;;;;;;8.77;2.72;;;14.90;61.10;;;17.68;43.54;97225.72;5062881;28;20401;-45
2023/03/30 02:16:25;;;;;;;8.30;2.63;;;14.90;61.70;;;17.61;43.85;97222.25;5040021;28;20045;-45
2023/03/30 02:18:53;;;;;;;12.35;4.18;;;14.90;62.30;;;17.63;43.73;97235.50;5061626;28;20061;-45
2023/03/30 02:21:21;;;;;;;14.73;2.97;;;14.80;61.80;;;17.57;44.05;97231.78;5046850;28;20055;-45
2023/03/30 02:23:53;;;;;;;7.07;2.78;;;14.80;62.30;;;17.58;43.89;97228.03;5043688;28;20539;-45
2023/03/30 02:26:21;;;;;;;7.75;3.13;;;14.80;62.40;;;17.60;44.14;97230.53;5059800;28;20041;-44
2023/03/30 02:28:50;;;;;;;13.32;2.65;;;14.80;62.20;;;17.61;44.01;97238.41;5043550;28;20045;-45
2023/03/30 02:31:18;;;;;;;8.15;2.67;;;14.80;62.00;;;17.52;44.48;97234.31;5064439;28;20032;-46
2023/03/30 02:34:03;;;;;;;8.25;2.60;;;14.90;62.00;;;17.63;44.11;97236.31;5043737;28;20533;-44
2023/03/30 02:36:59;;;;;;;12.93;3.35;;;14.90;62.70;;;17.63;44.13;97235.50;5039431;28;20422;-47
2023/03/30 02:39:46;;;;;;;9.90;3.90;;;14.90;62.70;;;17.67;44.00;97228.63;5054368;28;20049;-46
2023/03/30 02:42:58;;;;;;;7.97;2.80;;;14.90;63.30;;;17.62;44.59;97221.22;5037722;28;20052;-44
2023/03/30 02:46:05;;;;;;;8.77;2.45;;;14.90;64.60;;;17.68;45.08;97223.03;5052585;28;20506;-45
2023/03/30 02:49:16;;;;;;;7.57;3.10;;;14.90;65.90;;;17.51;46.32;97224.59;5059397;28;20037;-44
2023/03/30 02:52:20;;;;;;;8.77;3.78;;;14.80;69.90;;;17.49;47.31;97211.34;5058134;28;20045;-45
2023/03/30 02:54:57;;;;;;;6.53;3.13;;;14.70;71.60;;;17.46;47.56;97195.63;5051325;28;20051;-45
2023/03/30 02:58:06;;;;;;;10.32;4.70;;;14.60;73.40;;;17.37;48.20;97171.88;5060679;28;20048;-45
2023/03/30 03:01:14;;;;;;;8.13;2.53;;;14.50;75.30;;;17.43;48.08;97162.97;5047535;28;20052;-45
2023/03/30 03:03:57;;;;;;;8.73;4.10;;;14.50;76.00;;;17.37;48.61;97147.66;5060903;28;20460;-45
2023/03/30 03:06:27;;;;;;;7.00;3.33;;;14.30;76.00;;;17.36;48.74;97170.25;5045973;28;20115;-44
2023/03/30 03:08:55;;;;;;;9.23;4.13;;;14.30;78.70;;;17.28;48.85;97172.13;5042771;28;20428;-44
2023/03/30 03:11:29;;;;;;;8.73;2.83;;;14.20;77.20;;;17.23;49.17;97182.69;5039268;28;20045;-44
2023/03/30 03:13:56;;;;;;;7.60;3.03;;;14.20;78.40;;;17.17;49.40;97172.00;5060030;28;20052;-44
2023/03/30 03:16:25;;;;;;;8.95;3.55;;;14.10;78.20;;;17.10;49.33;97164.78;5061599;28;20040;-46
2023/03/30 03:19:10;;;;;;;10.15;3.17;;;14.10;78.10;;;17.12;49.32;97157.31;5051305;28;20056;-44
2023/03/30 03:21:39;;;;;;;14.38;4.28;;;14.00;78.30;;;17.13;49.32;97163.53;5058779;28;20045;-45
2023/03/30 03:24:07;;;;;;;10.00;2.45;;;14.10;78.10;;;17.10;49.43;97163.97;5061335;28;20055;-44
2023/03/30 03:27:07;;;;;;;9.15;3.13;;;14.10;79.10;;;17.09;49.63;97159.63;5015674;28;20060;-44
2023/03/30 03:29:52;;;;;;;8.45;2.85;;;14.00;79.90;;;17.07;49.77;97156.31;5060167;28;20072;-45
2023/03/30 03:32:19;;;;;;;7.93;3.17;;;13.90;80.50;;;16.98;50.43;97150.34;5060869;28;20040;-45
2023/03/30 03:34:48;;;;;;;10.93;4.35;;;13.90;81.00;;;16.94;51.00;97141.06;5059609;28;20044;-49
2023/03/30 03:37:17;;;;;;;10.00;3.25;;;13.90;82.50;;;16.93;50.73;97142.13;5058106;28;20045;-43
2023/03/30 03:39:45;;;;;;;9.63;3.28;;;13.90;83.30;;;16.93;50.79;97132.19;5058914;28;20402;-46
2023/03/30 03:42:14;;;;;;;5.50;2.92;;;13.80;83.40;;;16.93;50.80;97126.81;5044667;28;20045;-44
2023/03/30 03:44:51;;;;;;;7.18;2.97;;;13.80;83.60;;;16.91;51.10;97134.25;5058965;28;20087;-46
2023/03/30 03:47:21;;;;;;;11.75;3.55;;;13.80;84.90;;;16.87;51.42;97149.16;5057839;28;20501;-45
2023/03/30 03:49:49;;;;;;;11.88;3.75;;;13.80;85.50;;;16.80;51.44;97136.75;5057354;28;20045;-46
2023/03/30 03:52:17;;;;;;;12.85;3.40;;;13.70;87.90;;;16.76;51.68;97144.41;5060830;28;20512;-45
2023/03/30 03:54:44;;;;;;;9.13;3.28;;;13.60;88.50;;;16.65;51.92;97147.75;5059794;28;20045;-45
2023/03/30 03:57:12;;;;;;;7.50;2.63;;;13.60;88.70;;;16.66;52.06;97152.13;5057712;28;20410;-45
2023/03/30 03:59:40;;;;;;;6.85;3.28;;;13.60;88.60;;;16.62;52.22;97137.47;5058073;28;20045;-44
2023/03/30 04:02:08;;;;;;;11.98;2.85;;;13.60;89.10;;;16.61;52.11;97130.41;5060936;28;20037;-44
2023/03/30 04:04:36;;;;;;;11.68;3.78;;;13.60;89.10;;;16.67;52.09;97127.72;5061064;28;20119;-45
2023/03/30 04:07:04;;;;;;;6.45;3.10;;;13.60;88.30;;;16.70;52.00;97116.53;5049077;28;20045;-46
2023/03/30 04:09:32;;;;;;;9.63;2.95;;;13.60;88.20;;;16.72;51.86;97124.38;5041516;28;20048;-44
2023/03/30 04:12:29;;;;;;;11.10;3.55;;;13.70;88.40;;;16.68;52.07;97126.66;5051808;28;20037;-44
2023/03/30 04:15:11;;;;;;;11.85;3.38;;;13.70;88.70;;;16.67;52.10;97118.81;5035816;28;20506;-45
2023/03/30 04:17:48;;;;;;;9.82;4.18;;;13.60;88.30;;;16.68;52.21;97107.03;5058466;28;20448;-45
2023/03/30 04:20:28;;;;;;;7.60;4.15;;;13.70;88.60;;;16.68;52.01;97091.72;5060797;28;20052;-46
2023/03/30 04:23:08;;;;;;;11.95;3.88;;;13.60;88.60;;;16.69;52.02;97079.09;5049283;28;20398;-45
2023/03/30 04:25:54;;;;;;;10.25;4.18;;;13.60;88.60;;;16.67;52.08;97079.34;5061347;28;20064;-44
2023/03/30 04:28:59;;;;;;;8.27;3.70;;;13.60;88.60;;;16.68;52.08;97066.72;4979164;28;20077;-46
2023/03/30 04:31:45;;;;;;;12.15;4.97;;;13.60;89.00;;;16.61;52.47;97064.06;5049175;28;20049;-47
2023/03/30 04:34:34;;;;;;;9.52;3.83;;;13.50;90.10;;;16.57;52.28;97059.34;5060763;28;20059;-45
2023/03/30 04:37:02;;;;;;;13.50;3.92;;;13.40;90.50;;;16.55;52.65;97056.84;5059489;28;20067;-43
2023/03/30 04:39:42;;;;;;;11.05;3.38;;;13.40;90.70;;;16.56;52.45;97057.69;5057029;28;20072;-44
2023/03/30 04:42:36;;;;;;;10.63;3.10;;;13.40;90.70;;;16.60;52.31;97048.16;5021124;28;20064;-43
2023/03/30 04:45:39;;;;;;;10.35;3.97;;;13.50;90.80;;;16.58;52.42;97045.69;5054013;28;20049;-44
2023/03/30 04:48:25;;;;;;;11.70;4.18;;;13.50;91.50;;;16.54;52.44;97039.91;5057982;28;20060;-45
2023/03/30 04:51:06;;;;;;;12.18;3.25;;;13.40;91.90;;;16.48;52.57;97038.09;5063498;28;20048;-46
2023/03/30 04:53:56;;;;;;;10.15;3.38;;;13.40;92.90;;;16.50;52.90;97030.63;5063593;28;20048;-44
2023/03/30 04:56:55;;;;;;;10.82;4.13;;;13.40;92.50;;;16.48;52.77;97026.53;5062119;28;20402;-44
2023/03/30 04:59:22;;;;;;;10.10;4.30;;;13.40;92.20;;;16.52;52.87;97025.06;5065926;28;20128;-45
2023/03/30 05:02:02;;;;;;;19.83;6.60;;;13.50;92.30;;;16.52;52.68;97027.75;5063116;28;20053;-45
2023/03/30 05:04:36;;;;;;;13.70;3.22;;;13.50;91.50;;;16.49;52.91;97041.59;5063864;28;20056;-45
2023/03/30 05:07:18;;;;;;;9.20;5.10;;;13.50;91.60;;;16.42;53.11;97040.78;5053750;28;20053;-43
2023/03/30 05:10:06;;;;;;;15.88;4.22;;;13.50;91.30;;;16.46;53.01;97025.88;5064902;28;20041;-44
2023/03/30 05:12:55;;;;;;;11.88;4.13;;;13.50;91.20;;;16.40;53.02;97013.31;5064740;28;20052;-43
2023/03/30 05:15:41;;;;;;;12.85;4.50;;;13.50;90.60;;;16.44;52.75;97006.47;5063498;28;20075;-45
2023/03/30 05:18:35;;;;;;;11.95;3.60;;;13.50;89.90;;;16.48;52.59;97005.03;5043590;28;20398;-47
2023/03/30 05:21:16;;;;;;;8.68;3.60;;;13.60;89.10;;;16.47;52.76;97004.19;5060085;28;20060;-45
2023/03/30 05:23:58;;;;;;;10.98;4.80;;;13.70;88.50;;;16.52;52.37;97011.63;5062161;28;20053;-43
2023/03/30 05:26:47;;;;;;;15.73;7.05;;;13.70;87.70;;;16.50;52.52;97002.94;5063043;28;20079;-43
2023/03/30 05:29:29;;;;;;;12.73;4.72;;;13.70;87.30;;;16.58;52.18;96996.50;5060284;28;20056;-44
2023/03/30 05:31:56;;;;;;;13.27;4.63;;;13.80;86.70;;;16.58;52.41;96994.63;5062984;28;20045;-43
2023/03/30 05:34:53;;;;;;;12.68;4.97;;;13.80;86.30;;;16.57;52.53;96990.28;5050737;28;20068;-44
2023/03/30 05:37:38;;;;;;;10.48;3.78;;;13.90;86.10;;;16.69;52.13;96990.41;5060152;28;20040;-45
2023/03/30 05:40:32;;;;;;;12.35;3.38;;;13.90;85.90;;;16.64;51.84;96983.03;5054538;28;20053;-46
2023/03/30 05:43:05;;;;;;;11.45;4.95;;;13.90;85.10;;;16.72;51.80;96996.19;5063750;28;20429;-44
2023/03/30 05:45:50;;;;;;;8.50;3.40;;;14.00;84.40;;;16.67;51.72;97005.94;5065588;28;20060;-44
2023/03/30 05:48:43;;;;;;;9.93;3.63;;;14.00;84.20;;;16.72;51.78;97024.94;5056081;28;20053;-43
2023/03/30 05:51:28;;;;;;;9.68;5.18;;;14.00;83.80;;;16.67;51.91;97047.09;5054663;28;20040;-43
2023/03/30 05:54:12;;;;;;;13.07;3.70;;;14.00;83.30;;;16.60;52.16;97058.91;5062846;28;20043;-42
2023/03/30 05:56:48;;;;;;;11.35;3.65;;;14.00;84.20;;;16.66;51.98;97091.13;5062810;28;20048;-42
2023/03/30 05:59:26;;;;;;;13.30;4.20;;;14.00;84.50;;;16.48;52.62;97105.25;5059891;28;20044;-42
2023/03/30 06:02:16;;;;;;;6.72;2.80;;;13.90;85.00;;;16.61;52.39;97125.84;5051313;28;20662;-43
2023/03/30 06:04:45;;;;;;;11.48;3.97;;;14.00;85.10;;;16.64;52.59;97132.69;5059166;28;20076;-43
2023/03/30 06:07:13;;;;;;;12.00;3.50;;;14.00;85.40;;;16.69;52.38;97138.22;5058913;28;20048;-44
2023/03/30 06:09:42;;;;;;;11.45;3.25;;;14.00;85.50;;;16.59;52.84;97148.63;5059698;28;20522;-42
2023/03/30 06:12:21;;;;;;;10.35;3.28;;;13.90;85.70;;;16.67;52.65;97151.91;5067357;28;20056;-42
2023/03/30 06:14:49;;;;;;;9.18;3.30;;;13.90;86.50;;;16.68;52.47;97158.91;5059352;28;20049;-42
2023/03/30 06:17:28;;;;;;;7.82;2.95;;;13.90;86.20;;;16.65;53.09;97163.88;5062767;28;20040;-42
2023/03/30 06:19:56;;;;;;;10.45;3.17;;;13.90;87.60;;;16.63;53.28;97179.41;5061396;28;20056;-43
2023/03/30 06:22:24;;;;;;;12.13;2.88;;;13.80;87.40;;;16.57;53.43;97169.50;5057594;28;20055;-43
2023/03/30 06:25:09;;;;;;;13.27;4.10;;;13.80;88.00;;;16.50;53.37;97180.28;5063578;28;20056;-43
2023/03/30 06:27:37;;;;;;;11.35;5.07;;;13.70;88.60;;;16.47;54.22;97186.06;5046454;28;20497;-42
2023/03/30 06:30:08;;;;;;;8.93;3.00;;;13.70;89.50;;;16.63;53.95;97182.09;5060224;28;20040;-42
2023/03/30 06:32:38;;;;;;;7.88;3.55;;;13.80;90.20;;;16.60;54.18;97194.09;5039519;28;20038;-43
2023/03/30 06:35:22;;;;;;;13.05;3.80;;;13.80;91.40;;;16.53;55.31;97206.72;5058868;28;20405;-42
2023/03/30 06:37:51;;;;;;;14.07;4.95;;;13.80;95.40;;;16.57;55.47;97196.38;5058963;28;20041;-43
2023/03/30 06:40:19;;;;;;;10.32;4.43;;;13.70;99.20;;;16.56;55.80;97213.53;5062383;28;20314;-42
2023/03/30 06:42:49;;;;;;;7.65;3.33;;;13.70;99.90;;;16.43;56.33;97220.56;5061427;28;20059;-43
2023/03/30 06:45:26;;;;;;;11.32;3.67;;;13.60;99.90;;;16.27;57.14;97211.09;5052111;28;20071;-43
2023/03/30 06:47:54;;;;;;;7.95;3.33;;;13.50;99.90;;;15.86;58.58;97208.63;5060778;28;20060;-42
2023/03/30 06:50:23;;;;;;;9.85;3.53;;;13.40;99.90;;;15.95;58.40;97220.78;5059280;28;20051;-42
2023/03/30 06:53:10;;;;;;;11.45;3.60;;;13.30;99.90;;;15.85;58.86;97229.25;5059876;28;20052;-43
2023/03/30 06:55:42;;;;;;;18.27;4.78;;;13.20;99.90;;;15.84;58.76;97254.44;5059048;28;20044;-42
2023/03/30 06:58:15;;;;;;;10.60;4.03;;;13.20;99.90;;;15.73;59.17;97263.09;5061860;28;20047;-42
2023/03/30 07:00:42;;;;;;;16.45;4.22;;;13.10;99.90;;;15.68;59.50;97261.00;5061798;28;20048;-44
2023/03/30 07:03:28;;;;;;;10.73;4.05;;;13.00;99.90;;;15.72;59.23;97272.97;5055028;28;20060;-43
2023/03/30 07:06:09;;;;;;;9.98;4.05;;;13.00;99.90;;;15.54;60.04;97272.72;5042780;28;20311;-42
2023/03/30 07:08:39;;;;;;;13.30;4.60;;;12.90;99.90;;;15.61;59.42;97248.59;5061922;28;20048;-42
2023/03/30 07:11:09;;;;;;;10.85;4.03;;;12.90;99.90;;;15.52;59.80;97251.44;5059327;28;20053;-43
2023/03/30 07:13:39;;;;;;;10.35;4.13;;;12.80;99.90;;;15.39;60.30;97259.44;5057871;28;20036;-42
2023/03/30 07:16:08;;;;;;;18.63;4.78;;;12.80;99.90;;;15.21;61.39;97267.22;5066432;28;20505;-43
2023/03/30 07:18:35;;;;;;;9.25;3.58;;;12.70;99.90;;;15.30;60.82;97260.69;5055109;28;20045;-42
2023/03/30 07:21:04;;;;;;;11.80;5.22;;;12.60;99.90;;;15.34;60.46;97286.06;5063787;28;20053;-42
2023/03/30 07:23:37;;;;;;;;;;;12.60;99.90;;;15.19;61.56;97294.25;5061219;28;20052;-41
2023/03/30 07:26:05;;;;;;;12.80;5.00;;;12.50;99.90;;;14.96;61.99;97295.34;5060061;28;19920;-43
2023/03/30 07:28:55;;;;;;;13.82;4.38;;;12.40;99.90;;;15.16;61.12;97276.69;5059529;28;20536;-42
2023/03/30 07:31:24;;;;;;;11.65;4.63;;;12.40;99.90;;;15.26;60.66;97244.16;5061453;28;20055;-42
2023/03/30 07:33:52;;;;;;;12.05;4.47;;;12.40;99.90;;;15.42;60.24;97248.31;5061144;28;20060;-41
2023/03/30 07:36:24;;;;;;;9.60;5.35;;;12.50;99.90;;;15.38;60.45;97249.75;5050197;28;20048;-41
2023/03/30 07:38:52;;;;;;;9.10;4.45;;;12.50;99.90;;;15.44;60.31;97251.63;5041719;28;20060;-43
2023/03/30 07:41:20;;;;;;;11.73;4.75;;;12.50;99.90;;;15.56;60.04;97249.19;5049861;28;20414;-44
2023/03/30 07:43:52;;;;;;;13.82;4.63;;;12.60;99.90;;;15.68;59.84;97223.44;5056887;28;20460;-44
2023/03/30 07:46:20;;;;;;;11.50;5.70;;;12.70;99.90;;;15.79;59.68;97230.06;5049959;28;20041;-42
2023/03/30 07:48:52;;;;;;;8.35;4.53;;;12.80;99.90;;;15.89;59.59;97235.03;5056442;28;20536;-44
2023/03/30 07:51:20;;;;;;;8.63;5.03;;;12.90;99.90;;;15.93;59.42;97255.88;5040297;28;20045;-43
2023/03/30 07:54:01;;;;;;;11.80;6.38;;;12.90;99.90;;;15.97;59.25;97266.22;5071811;28;20050;-43
2023/03/30 07:56:43;;;;;;;7.10;3.97;;;12.90;99.90;;;15.93;59.20;97277.38;5060964;28;20048;-45
2023/03/30 07:59:12;;;;;;;10.48;4.10;;;12.90;99.90;;;15.89;59.22;97289.53;5060070;28;20040;-43
2023/03/30 08:01:43;;;;;;;10.70;4.78;;;12.80;99.90;;;15.87;59.19;97307.72;5057529;28;20057;-44
2023/03/30 08:04:18;;;;;;;10.18;4.85;;;12.80;99.90;;;15.73;59.54;97317.59;5061545;28;20421;-42
2023/03/30 08:06:46;;;;;;;6.15;3.25;;;12.70;99.90;;;15.57;59.68;97331.34;5060929;28;20048;-44
2023/03/30 08:09:15;;;;;;;8.52;3.28;;;12.60;99.90;;;15.44;60.31;97336.66;5058430;28;20052;-43
2023/03/30 08:11:42;;;;;;;6.20;2.88;;;12.50;99.90;;;15.26;60.86;97326.47;5056887;28;20056;-43
2023/03/30 08:14:10;;;;;;;4.65;2.50;;;12.50;99.90;;;15.29;60.77;97329.56;5046073;28;20045;-42
2023/03/30 08:16:38;;;;;;;5.13;2.90;;;12.50;99.90;;;15.40;60.37;97330.03;5059339;28;20513;-43
2023/03/30 08:19:06;;;;;;;3.78;3.40;;;12.50;99.90;;;15.22;61.17;97327.88;5063092;28;20045;-43
2023/03/30 08:21:33;;;;;;;10.68;4.40;;;12.40;99.90;;;15.30;60.83;97315.13;5066601;28;20044;-42
2023/03/30 08:24:01;;;;;;;6.32;3.35;;;12.50;99.90;;;15.30;60.62;97322.34;5065512;28;20501;-42
2023/03/30 08:26:29;;;;;;;6.22;3.47;;;12.40;99.90;;;15.42;60.55;97326.13;5062799;28;20045;-42
2023/03/30 08:28:57;;;;;;;4.60;2.70;;;12.50;99.90;;;15.54;60.13;97319.13;5062581;28;20101;-42
2023/03/30 08:31:25;;;;;;;6.07;2.47;;;12.60;99.90;;;15.53;59.92;97252.28;5055038;28;20037;-43
2023/03/30 08:33:52;;;;;;;8.10;2.60;;;12.60;99.90;;;15.60;59.72;97252.31;5062484;28;20033;-43
2023/03/30 08:36:20;;;;;;;4.65;2.80;;;12.60;99.90;;;15.65;59.71;97237.25;5066069;28;20047;-43
2023/03/30 08:38:48;;;;;;;3.95;2.50;;;12.70;99.90;;;15.69;59.75;97213.53;5066326;28;20040;-42
2023/03/30 08:41:28;;;;;;;4.57;2.33;;;12.60;99.90;;;15.72;59.67;97211.25;5063305;28;20059;-43
2023/03/30 08:44:04;;;;;;;5.40;2.80;;;12.60;99.90;;;15.78;59.55;97238.31;5062285;28;20060;-43
2023/03/30 08:46:32;;;;;;;7.03;2.78;;;12.70;99.90;;;15.78;59.44;97233.81;5055668;28;20041;-42
2023/03/30 08:49:10;;;;;;;6.03;2.45;;;12.60;99.90;;;15.79;59.61;97229.25;5061603;28;20052;-43
2023/03/30 08:51:38;;;;;;;5.10;2.40;;;12.70;99.90;;;15.80;59.53;97223.69;5064206;28;20040;-44
2023/03/30 08:54:13;;;;;;;5.47;2.63;;;12.70;99.90;;;15.85;59.15;97225.75;5063202;28;20420;-43
2023/03/30 08:57:11;;;;;;;4.35;2.10;;;12.70;99.90;;;15.88;59.14;97220.81;5061491;28;20044;-44
2023/03/30 08:59:57;;;;;;;4.43;2.88;;;12.80;99.90;;;15.96;58.77;97203.66;5055112;28;20513;-43
2023/03/30 09:02:39;;;;;;;4.25;2.55;;;12.80;99.90;;;16.03;58.74;97217.94;5064201;28;20044;-45
2023/03/30 09:05:20;;;;;;;5.15;2.92;;;12.90;99.90;;;16.10;58.81;97213.38;5063646;28;20076;-45
2023/03/30 09:08:12;;;;;;;5.85;2.45;;;13.00;99.90;;;16.16;58.63;97225.13;5062179;28;20076;-43
2023/03/30 09:10:47;;;;;;;6.18;2.50;;;13.10;99.90;;;16.25;58.10;97223.09;5055629;28;20068;-42
2023/03/30 09:13:19;;;;;;;2.42;2.00;;;13.20;99.90;;;16.30;58.42;97237.53;5063286;28;20041;-42
2023/03/30 09:16:08;;;;;;;5.70;3.95;;;13.30;99.90;;;16.38;58.28;97249.09;5056504;28;20509;-43
2023/03/30 09:18:38;;;;;;;4.63;3.45;;;13.30;99.90;;;16.45;58.05;97240.00;5056136;28;20397;-44
2023/03/30 09:21:11;;;;;;;4.50;2.00;;;13.40;99.90;;;16.43;58.27;97238.56;5054083;28;20059;-44
2023/03/30 09:23:39;;;;;;;2.88;1.83;;;13.40;99.90;;;16.41;57.99;97241.44;5048275;28;20053;-45
2023/03/30 09:26:10;;;;;;;4.60;2.10;;;13.30;99.90;;;16.48;57.89;97231.53;5038818;28;20590;-45
2023/03/30 09:28:47;;;;;;;2.45;1.95;;;13.40;99.90;;;16.59;58.03;97248.03;5039088;28;20399;-44
2023/03/30 09:31:31;;;;;;;4.07;2.20;;;13.50;99.90;;;16.55;57.70;97253.00;5032658;28;20041;-45
2023/03/30 09:34:05;;;;;;;5.03;2.33;;;13.50;99.90;;;16.60;57.62;97258.59;5041023;28;20037;-43
2023/03/30 09:37:01;;;;;;;4.15;2.90;;;13.50;99.90;;;16.70;57.46;97266.22;5041745;28;20509;-43
2023/03/30 09:39:32;;;;;;;2.30;1.80;;;13.60;99.90;;;16.74;56.98;97276.34;5039057;28;20378;-46
2023/03/30 09:42:15;;;;;;;4.32;2.20;;;13.60;99.90;;;16.72;57.06;97280.28;5034506;28;20054;-44
2023/03/30 09:45:21;;;;;;;4.68;2.00;;;13.60;99.90;;;16.64;57.04;97285.88;5049138;28;20048;-46
2023/03/30 09:47:49;;;;;;;2.67;1.98;;;13.60;99.90;;;16.68;56.80;97287.94;5039925;28;20048;-42
2023/03/30 09:50:23;;;;;;;2.92;1.83;;;13.60;99.90;;;16.61;56.74;97286.28;5039621;28;20127;-43
2023/03/30 09:56:57;;;;;;;2.58;1.75;;;13.50;99.90;;;16.39;56.30;97301.81;5060472;28;20047;-44
2023/03/30 09:59:34;;;;;;;2.78;2.15;;;13.40;99.90;;;16.31;56.37;97309.03;5064090;28;20050;-44
2023/03/30 10:02:30;;;;;;;6.10;2.08;;;13.40;99.90;;;16.35;56.49;97309.44;5064414;28;20036;-43
2023/03/30 10:05:01;;;;;;;4.35;2.72;;;13.40;99.90;;;16.26;56.79;97298.06;5053490;28;20053;-45
2023/03/30 10:07:35;;;;;;;3.58;2.15;;;13.30;99.90;;;16.37;56.61;97290.44;5064662;28;20481;-46
2023/03/30 10:10:19;;;;;;;;;;;13.30;99.90;;;16.42;56.66;97294.16;5063972;28;20049;-44
2023/03/30 10:12:52;;;;;;;4.27;2.00;;;13.30;99.90;;;16.44;56.16;97285.88;5053675;28;19927;-44
2023/03/30 10:15:23;;;;;;;;;;;13.30;99.90;;;16.40;56.71;97274.75;5062605;28;20290;-45
2023/03/30 10:17:55;;;;;;;30.88;13.48;;;13.20;99.90;;;16.36;56.69;97259.22;5046528;28;19920;-43
2023/03/30 10:20:26;;;;;;;12.20;6.30;;;13.20;99.90;;;16.34;57.22;97248.69;5061146;28;20048;-43
2023/03/30 10:23:01;;;;;;;22.88;11.15;;;13.30;99.90;;;16.44;57.39;97250.94;5060553;28;20525;-43
2023/03/30 10:25:32;;;;;;;43.58;22.25;;;13.40;99.90;;;16.54;57.54;97241.44;5062897;28;20489;-44
2023/03/30 10:28:03;;;;;;;10.77;6.25;;;13.50;99.90;;;16.64;57.57;97246.38;5063129;28;20040;-43
2023/03/30 10:30:32;;;;;;;9.77;6.53;;;13.60;99.90;;;16.74;57.37;97252.13;5064006;28;20489;-43
2023/03/30 10:33:01;;;;;;;10.65;5.00;;;13.80;99.90;;;16.86;57.26;97246.16;5063603;28;20049;-42
2023/03/30 10:35:36;;;;;;;6.07;2.50;;;13.90;99.90;;;16.96;56.95;97241.16;5059557;28;20048;-44
2023/03/30 10:38:06;;;;;;;4.72;2.42;;;14.00;99.90;;;17.02;56.15;97236.78;5059281;28;20051;-45
2023/03/30 10:40:39;;;;;;;4.45;2.55;;;14.10;99.90;;;16.89;56.06;97233.13;5052351;28;20044;-46
2023/03/30 10:43:24;;;;;;;6.57;2.72;;;14.10;99.90;;;17.09;55.80;97233.03;5058360;28;20056;-43
2023/03/30 10:45:58;;;;;;;6.38;2.92;;;14.20;99.90;;;17.22;55.29;97229.47;5062616;28;20044;-44
2023/03/30 10:49:12;;;;;;;4.17;2.67;;;14.30;99.90;;;17.11;55.54;97246.28;5054124;28;20441;-43
2023/03/30 10:52:14;;;;;;;5.90;3.30;;;14.40;99.90;;;17.04;54.14;97229.34;5059198;28;20513;-43
2023/03/30 10:55:16;;;;;;;3.28;2.00;;;14.30;99.90;;;17.15;54.32;97212.53;5037933;28;20068;-41
2023/03/30 10:58:19;;;;;;;6.13;2.78;;;14.30;99.90;;;17.02;51.98;97234.09;5053805;28;20045;-42
2023/03/30 11:01:02;;;;;;;3.67;2.72;;;14.50;99.90;;;17.20;52.64;97223.50;5052740;28;20048;-42
2023/03/30 11:03:31;;;;;;;5.38;2.10;;;14.50;99.90;;;17.39;52.46;97234.38;5061025;28;20520;-43
2023/03/30 11:06:12;;;;;;;6.88;2.92;;;14.60;99.90;;;17.36;52.77;97232.13;5062158;28;20041;-42